createdAt,value
2023-04-10T00:00:35.508Z,3.90
2023-04-10T00:03:04.148Z,3.70
2023-04-10T00:05:34.064Z,4.13
2023-04-10T00:08:03.276Z,4.30
2023-04-10T00:10:32.396Z,3.67
2023-04-10T00:13:00.942Z,3.73
2023-04-10T00:15:29.692Z,3.70
2023-04-10T00:17:57.842Z,3.50
2023-04-10T00:20:26.944Z,3.80
2023-04-10T00:22:56.468Z,4.07
2023-04-10T00:25:24.661Z,3.50
2023-04-10T00:27:52.805Z,3.33
2023-04-10T00:30:21.391Z,3.83
2023-04-10T00:32:49.797Z,4.00
2023-04-10T00:35:18.003Z,3.67
2023-04-10T00:37:46.466Z,3.30
2023-04-10T00:40:16.102Z,4.27
2023-04-10T00:42:44.253Z,3.80
2023-04-10T00:45:12.876Z,3.70
2023-04-10T00:47:41.378Z,3.63
2023-04-10T00:50:09.967Z,3.83
2023-04-10T00:52:38.546Z,3.43
2023-04-10T00:55:07.295Z,3.83
2023-04-10T00:57:37.479Z,3.50
2023-04-10T01:00:09.319Z,3.80
2023-04-10T01:02:37.655Z,3.83
2023-04-10T01:05:06.152Z,3.50
2023-04-10T01:07:40.445Z,3.90
2023-04-10T01:10:13.986Z,4.67
2023-04-10T01:12:53.770Z,3.77
2023-04-10T01:15:22.749Z,3.90
2023-04-10T01:17:52.451Z,3.70
2023-04-10T01:20:22.110Z,3.90
2023-04-10T01:23:08.315Z,3.70
2023-04-10T01:25:45.540Z,3.90
2023-04-10T01:28:29.634Z,3.77
2023-04-10T01:31:01.077Z,3.70
2023-04-10T01:33:32.045Z,3.80
2023-04-10T01:36:02.432Z,3.67
2023-04-10T01:38:31.217Z,3.33
2023-04-10T01:40:59.800Z,3.50
2023-04-10T01:43:28.202Z,3.40
2023-04-10T01:45:58.558Z,4.10
2023-04-10T01:48:28.208Z,3.80
2023-04-10T01:50:56.752Z,3.60
2023-04-10T01:53:25.237Z,4.10
2023-04-10T01:55:54.830Z,3.70
2023-04-10T01:58:23.047Z,3.60
2023-04-10T02:00:51.307Z,3.43
2023-04-10T02:03:19.958Z,3.90
2023-04-10T02:05:56.574Z,3.33
2023-04-10T02:08:28.112Z,3.93
2023-04-10T02:10:57.951Z,3.50
2023-04-10T02:13:27.841Z,4.33
2023-04-10T02:15:57.045Z,3.73
2023-04-10T02:18:25.907Z,3.63
2023-04-10T02:20:55.717Z,4.00
2023-04-10T02:23:24.225Z,4.03
2023-04-10T02:25:52.435Z,4.00
2023-04-10T02:28:20.747Z,3.87
2023-04-10T02:30:48.915Z,3.70
2023-04-10T02:33:17.094Z,3.90
2023-04-10T02:35:45.290Z,4.00
2023-04-10T02:38:16.860Z,4.30
2023-04-10T02:40:46.105Z,3.60
2023-04-10T02:43:14.311Z,3.40
2023-04-10T02:45:42.669Z,3.80
2023-04-10T02:48:11.762Z,4.77
2023-04-10T02:50:40.081Z,4.40
2023-04-10T02:53:08.323Z,3.60
2023-04-10T02:55:37.850Z,4.30
2023-04-10T02:58:06.084Z,4.10
2023-04-10T03:00:34.431Z,4.30
2023-04-10T03:03:02.678Z,3.60
2023-04-10T03:05:32.143Z,4.20
2023-04-10T03:08:00.281Z,4.20
2023-04-10T03:10:29.129Z,4.50
2023-04-10T03:12:58.625Z,4.13
2023-04-10T03:15:26.795Z,3.53
2023-04-10T03:17:55.048Z,4.20
2023-04-10T03:20:23.304Z,3.83
2023-04-10T03:22:51.697Z,4.13
2023-04-10T03:25:19.852Z,3.97
2023-04-10T03:27:48.149Z,4.53
2023-04-10T03:30:17.680Z,3.80
2023-04-10T03:32:46.924Z,4.30
2023-04-10T03:35:15.392Z,4.20
2023-04-10T03:37:43.580Z,4.47
2023-04-10T03:40:12.401Z,3.50
2023-04-10T03:42:40.681Z,3.73
2023-04-10T03:45:09.375Z,3.70
2023-04-10T03:47:39.018Z,4.00
2023-04-10T03:50:07.576Z,4.10
2023-04-10T03:52:35.758Z,3.77
2023-04-10T03:55:03.917Z,4.23
2023-04-10T03:57:32.108Z,4.00
2023-04-10T04:00:00.258Z,4.00
2023-04-10T04:02:28.593Z,3.73
2023-04-10T04:04:58.564Z,4.27
2023-04-10T04:07:26.768Z,4.53
2023-04-10T04:09:56.385Z,3.90
2023-04-10T04:12:27.942Z,4.43
2023-04-10T04:14:56.073Z,4.63
2023-04-10T04:17:24.279Z,4.37
2023-04-10T04:19:52.455Z,4.57
2023-04-10T04:22:22.059Z,3.87
2023-04-10T04:24:50.376Z,3.93
2023-04-10T04:27:20.075Z,4.37
2023-04-10T04:29:48.253Z,4.63
2023-04-10T04:32:16.614Z,4.50
2023-04-10T04:34:44.836Z,4.63
2023-04-10T04:37:13.009Z,4.80
2023-04-10T04:39:42.576Z,4.30
2023-04-10T04:42:10.750Z,4.60
2023-04-10T04:44:38.954Z,4.40
2023-04-10T04:47:07.142Z,4.47
2023-04-10T04:49:35.421Z,4.67
2023-04-10T04:52:03.670Z,4.53
2023-04-10T04:54:31.800Z,4.20
2023-04-10T04:57:01.580Z,4.10
2023-04-10T04:59:29.798Z,4.40
2023-04-10T05:01:58.138Z,4.53
2023-04-10T05:04:26.651Z,3.97
2023-04-10T05:06:54.896Z,4.53
2023-04-10T05:09:23.141Z,4.53
2023-04-10T05:11:51.828Z,4.77
2023-04-10T05:14:21.645Z,5.20
2023-04-10T05:16:49.848Z,4.73
2023-04-10T05:19:18.068Z,4.03
2023-04-10T05:21:46.382Z,4.20
2023-04-10T05:24:14.584Z,5.33
2023-04-10T05:26:42.769Z,4.50
2023-04-10T05:29:10.965Z,4.20
2023-04-10T05:31:40.647Z,4.30
2023-04-10T05:34:08.839Z,4.40
2023-04-10T05:36:37.367Z,4.33
2023-04-10T05:39:05.666Z,4.20
2023-04-10T05:41:33.836Z,3.97
2023-04-10T05:44:01.997Z,4.23
2023-04-10T05:46:30.226Z,3.77
2023-04-10T05:48:59.745Z,4.00
2023-04-10T05:51:28.718Z,4.10
2023-04-10T05:53:56.869Z,4.57
2023-04-10T05:56:25.044Z,3.77
2023-04-10T05:58:53.397Z,3.97
2023-04-10T06:01:21.734Z,4.00
2023-04-10T06:03:50.050Z,3.97
2023-04-10T06:06:19.672Z,4.37
2023-04-10T06:08:47.854Z,4.17
2023-04-10T06:11:16.101Z,3.83
2023-04-10T06:13:44.279Z,4.00
2023-04-10T06:16:12.507Z,4.17
2023-04-10T06:18:40.661Z,4.10
2023-04-10T06:21:09.224Z,4.50
2023-04-10T06:23:38.779Z,3.70
2023-04-10T06:26:07.043Z,3.90
2023-04-10T06:28:35.200Z,3.83
2023-04-10T06:31:04.270Z,4.03
2023-04-10T06:33:32.527Z,3.93
2023-04-10T06:36:01.258Z,4.00
2023-04-10T06:38:29.529Z,3.80
2023-04-10T06:40:59.143Z,3.80
2023-04-10T06:43:27.905Z,3.63
2023-04-10T06:45:56.135Z,3.90
2023-04-10T06:48:24.471Z,3.97
2023-04-10T06:50:52.636Z,3.90
2023-04-10T06:53:20.779Z,4.00
2023-04-10T06:55:48.948Z,3.70
2023-04-10T06:58:18.713Z,3.80
2023-04-10T07:00:47.117Z,3.60
2023-04-10T07:03:15.767Z,3.73
2023-04-10T07:05:44.106Z,3.87
2023-04-10T07:08:12.267Z,3.60
2023-04-10T07:10:40.409Z,3.70
2023-04-10T07:13:08.590Z,3.80
2023-04-10T07:15:38.176Z,3.10
2023-04-10T07:18:07.168Z,3.70
2023-04-10T07:20:35.607Z,3.20
2023-04-10T07:23:03.761Z,3.23
2023-04-10T07:25:32.090Z,3.10
2023-04-10T07:28:00.370Z,3.23
2023-04-10T07:30:28.536Z,3.57
2023-04-10T07:32:58.509Z,3.37
2023-04-10T07:35:27.052Z,3.30
2023-04-10T07:37:55.253Z,3.20
2023-04-10T07:40:23.426Z,3.40
2023-04-10T07:42:53.765Z,3.13
2023-04-10T07:45:22.286Z,3.30
2023-04-10T07:47:50.492Z,3.30
2023-04-10T07:50:20.058Z,3.70
2023-04-10T07:52:48.224Z,3.27
2023-04-10T07:55:16.415Z,3.23
2023-04-10T07:57:44.589Z,3.20
2023-04-10T08:00:13.451Z,2.90
2023-04-10T08:02:41.803Z,3.63
2023-04-10T08:05:10.418Z,2.57
2023-04-10T08:07:39.948Z,2.80
2023-04-10T08:10:08.412Z,3.20
2023-04-10T08:12:36.637Z,3.10
2023-04-10T08:15:04.948Z,3.17
2023-04-10T08:17:33.144Z,3.00
2023-04-10T08:20:01.337Z,3.40
2023-04-10T08:22:29.494Z,2.87
2023-04-10T08:24:59.029Z,2.83
2023-04-10T08:27:28.386Z,3.03
2023-04-10T08:29:56.537Z,2.90
2023-04-10T08:32:26.482Z,3.43
2023-04-10T08:34:54.700Z,2.60
2023-04-10T08:37:22.986Z,2.73
2023-04-10T08:39:51.777Z,2.90
2023-04-10T08:42:22.253Z,2.67
2023-04-10T08:44:50.858Z,3.00
2023-04-10T08:47:20.646Z,2.97
2023-04-10T08:49:49.771Z,2.90
2023-04-10T08:52:20.749Z,3.00
2023-04-10T08:54:49.868Z,2.97
2023-04-10T08:57:20.569Z,3.00
2023-04-10T08:59:51.519Z,2.77
2023-04-10T09:02:20.251Z,2.50
2023-04-10T09:04:50.047Z,2.50
2023-04-10T09:07:18.520Z,2.80
2023-04-10T09:09:46.832Z,2.87
2023-04-10T09:12:15.594Z,3.00
2023-04-10T09:14:44.402Z,3.33
2023-04-10T09:17:17.949Z,2.87
2023-04-10T09:19:46.732Z,2.97
2023-04-10T09:22:15.344Z,2.97
2023-04-10T09:24:44.770Z,3.37
2023-04-10T09:27:12.949Z,3.00
2023-04-10T09:29:43.373Z,2.80
2023-04-10T09:32:11.640Z,3.10
2023-04-10T09:34:56.765Z,2.97
2023-04-10T09:37:32.552Z,3.10
2023-04-10T09:40:00.827Z,2.90
2023-04-10T09:42:33.535Z,3.43
2023-04-10T09:45:02.264Z,3.03
2023-04-10T09:47:30.773Z,2.70
2023-04-10T09:50:01.383Z,2.67
2023-04-10T09:52:30.246Z,2.60
2023-04-10T09:54:59.237Z,2.70
2023-04-10T09:57:28.497Z,2.43
2023-04-10T09:59:58.214Z,2.70
2023-04-10T10:02:27.612Z,2.60
2023-04-10T10:04:56.035Z,2.93
2023-04-10T10:07:26.094Z,2.67
2023-04-10T10:09:54.546Z,2.40
2023-04-10T10:12:24.415Z,2.50
2023-04-10T10:14:56.374Z,2.60
2023-04-10T10:17:27.187Z,2.20
2023-04-10T10:19:58.748Z,2.60
2023-04-10T10:22:29.105Z,2.37
2023-04-10T10:24:59.501Z,2.33
2023-04-10T10:27:28.392Z,2.57
2023-04-10T10:29:56.588Z,2.50
2023-04-10T10:32:25.877Z,2.50
2023-04-10T10:34:54.421Z,2.73
2023-04-10T10:37:22.629Z,2.80
2023-04-10T10:39:57.946Z,2.93
2023-04-10T10:42:29.882Z,2.40
2023-04-10T10:45:03.022Z,2.90
2023-04-10T10:47:32.347Z,2.80
2023-04-10T10:50:01.183Z,2.60
2023-04-10T10:52:47.686Z,2.60
2023-04-10T10:55:34.874Z,2.60
2023-04-10T10:58:03.625Z,2.90
2023-04-10T11:00:50.736Z,2.50
2023-04-10T11:03:31.260Z,2.73
2023-04-10T11:06:00.829Z,2.50
2023-04-10T11:08:44.016Z,2.70
2023-04-10T11:11:15.896Z,2.67
2023-04-10T11:14:04.738Z,2.87
2023-04-10T11:16:46.618Z,2.90
2023-04-10T11:19:18.260Z,2.37
2023-04-10T11:22:05.069Z,2.53
2023-04-10T11:24:48.122Z,2.70
2023-04-10T11:27:31.628Z,2.30
2023-04-10T11:30:01.154Z,2.73
2023-04-10T11:32:29.366Z,2.80
2023-04-10T11:34:57.559Z,2.60
2023-04-10T11:37:25.829Z,2.83
2023-04-10T11:40:04.656Z,2.50
2023-04-10T11:42:32.890Z,2.87
2023-04-10T11:45:22.395Z,2.70
2023-04-10T11:47:53.129Z,2.50
2023-04-10T11:50:21.571Z,2.40
2023-04-10T11:52:51.023Z,2.40
2023-04-10T11:55:19.357Z,2.33
2023-04-10T11:57:47.998Z,2.27
2023-04-10T12:00:25.835Z,2.40
2023-04-10T12:02:54.399Z,2.10
2023-04-10T12:05:22.965Z,2.27
2023-04-10T12:07:51.540Z,2.30
2023-04-10T12:10:21.366Z,2.33
2023-04-10T12:12:49.511Z,2.40
2023-04-10T12:15:31.380Z,2.30
2023-04-10T12:17:59.653Z,2.30
2023-04-10T12:20:29.745Z,2.20
2023-04-10T12:23:01.356Z,2.50
2023-04-10T12:25:29.543Z,2.37
2023-04-10T12:27:57.733Z,2.60
2023-04-10T12:30:25.989Z,2.67
2023-04-10T12:32:55.631Z,2.37
2023-04-10T12:35:38.978Z,2.50
2023-04-10T12:38:07.242Z,2.87
2023-04-10T12:40:35.616Z,2.60
2023-04-10T12:43:03.835Z,2.50
2023-04-10T12:45:43.626Z,2.43
2023-04-10T12:48:13.132Z,2.30
2023-04-10T12:50:51.228Z,2.33
2023-04-10T12:53:19.487Z,2.40
2023-04-10T12:55:59.226Z,2.60
2023-04-10T12:58:28.567Z,2.30
2023-04-10T13:00:57.392Z,2.40
2023-04-10T13:03:27.069Z,2.43
2023-04-10T13:05:55.767Z,2.70
2023-04-10T13:08:24.349Z,2.47
2023-04-10T13:10:52.585Z,2.40
2023-04-10T13:13:20.784Z,2.17
2023-04-10T13:15:49.466Z,2.17
2023-04-10T13:18:17.706Z,2.30
2023-04-10T13:20:47.208Z,2.40
2023-04-10T13:23:15.372Z,2.70
2023-04-10T13:25:43.569Z,2.67
2023-04-10T13:28:11.975Z,2.67
2023-04-10T13:30:40.686Z,2.50
2023-04-10T13:33:09.517Z,2.50
2023-04-10T13:35:37.857Z,2.40
2023-04-10T13:38:09.101Z,2.40
2023-04-10T13:40:37.253Z,2.37
2023-04-10T13:43:06.276Z,2.40
2023-04-10T13:45:34.860Z,2.80
2023-04-10T13:48:03.866Z,2.40
2023-04-10T13:50:32.196Z,2.43
2023-04-10T13:53:00.372Z,2.27
2023-04-10T13:55:29.925Z,2.70
2023-04-10T13:57:58.049Z,2.27
2023-04-10T14:00:26.287Z,2.43
2023-04-10T14:02:54.636Z,2.50
2023-04-10T14:05:22.919Z,2.40
2023-04-10T14:07:53.778Z,2.23
2023-04-10T14:10:21.981Z,2.40
2023-04-10T14:12:51.514Z,2.30
2023-04-10T14:15:19.779Z,2.03
2023-04-10T14:17:47.971Z,1.50
2023-04-10T14:20:16.207Z,2.00
2023-04-10T14:22:44.373Z,1.67
2023-04-10T14:25:15.607Z,1.80
2023-04-10T14:27:43.986Z,1.80
2023-04-10T14:30:13.782Z,1.93
2023-04-10T14:32:42.294Z,1.63
2023-04-10T14:35:10.999Z,1.80
2023-04-10T14:37:39.461Z,1.90
2023-04-10T14:40:08.351Z,2.10
2023-04-10T14:42:36.633Z,2.07
2023-04-10T14:45:06.106Z,1.90
2023-04-10T14:47:36.361Z,2.07
2023-04-10T14:50:04.625Z,2.10
2023-04-10T14:52:32.787Z,1.70
2023-04-10T14:55:01.028Z,1.83
2023-04-10T14:57:29.607Z,1.97
2023-04-10T14:59:57.834Z,1.90
2023-04-10T15:02:26.214Z,1.80
2023-04-10T15:04:55.781Z,2.00
2023-04-10T15:07:24.110Z,2.20
2023-04-10T15:09:52.287Z,2.20
2023-04-10T15:12:20.928Z,1.90
2023-04-10T15:14:49.122Z,2.07
2023-04-10T15:17:17.330Z,2.10
2023-04-10T15:19:45.553Z,1.70
2023-04-10T15:22:15.192Z,2.03
2023-04-10T15:24:50.053Z,2.20
2023-04-10T15:27:20.965Z,2.07
2023-04-10T15:29:49.355Z,2.03
2023-04-10T15:32:17.529Z,1.90
2023-04-10T15:34:45.747Z,1.80
2023-04-10T15:37:15.247Z,2.03
2023-04-10T15:39:43.390Z,1.90
2023-04-10T15:42:11.580Z,2.30
2023-04-10T15:44:39.763Z,2.30
2023-04-10T15:47:07.930Z,1.87
2023-04-10T15:49:38.457Z,2.17
2023-04-10T15:52:07.337Z,2.20
2023-04-10T15:54:36.881Z,2.30
2023-04-10T15:57:05.263Z,2.10
2023-04-10T15:59:35.845Z,2.10
2023-04-10T16:02:04.122Z,2.10
2023-04-10T16:04:32.786Z,2.20
2023-04-10T16:07:00.999Z,1.97
2023-04-10T16:09:29.209Z,2.33
2023-04-10T16:11:58.813Z,1.90
2023-04-10T16:14:27.073Z,2.88
2023-04-10T16:16:55.347Z,2.17
2023-04-10T16:19:26.436Z,2.40
2023-04-10T16:21:54.640Z,2.13
2023-04-10T16:24:23.082Z,2.30
2023-04-10T16:26:51.488Z,2.20
2023-04-10T16:29:21.047Z,2.40
2023-04-10T16:31:49.376Z,2.93
2023-04-10T16:34:17.646Z,2.70
2023-04-10T16:36:45.785Z,2.53
2023-04-10T16:39:13.947Z,2.30
2023-04-10T16:41:42.131Z,2.43
2023-04-10T16:44:10.364Z,2.40
2023-04-10T16:46:39.930Z,2.70
2023-04-10T16:49:08.283Z,2.60
2023-04-10T16:51:36.414Z,2.53
2023-04-10T16:54:04.642Z,2.50
2023-04-10T16:56:32.926Z,2.33
2023-04-10T16:59:01.125Z,2.50
2023-04-10T17:01:29.465Z,2.50
2023-04-10T17:03:59.141Z,2.50
2023-04-10T17:06:27.397Z,2.37
2023-04-10T17:08:55.823Z,2.90
2023-04-10T17:11:24.200Z,2.60
2023-04-10T17:13:52.369Z,2.57
2023-04-10T17:16:20.566Z,2.63
2023-04-10T17:18:48.721Z,2.27
2023-04-10T17:21:18.230Z,2.20
2023-04-10T17:23:46.376Z,2.17
2023-04-10T17:26:15.108Z,2.10
2023-04-10T17:28:44.941Z,1.70
2023-04-10T17:31:13.338Z,1.80
2023-04-10T17:33:42.699Z,1.80
2023-04-10T17:36:12.010Z,1.53
2023-04-10T17:38:42.030Z,1.40
2023-04-10T17:41:10.639Z,1.10
2023-04-10T17:43:38.844Z,1.40
2023-04-10T17:46:07.352Z,1.80
2023-04-10T17:48:35.989Z,1.70
2023-04-10T17:51:06.398Z,1.30
2023-04-10T17:53:34.578Z,1.57
2023-04-10T17:56:04.152Z,1.43
2023-04-10T17:58:32.344Z,1.57
2023-04-10T18:01:00.541Z,1.60
2023-04-10T18:03:28.844Z,1.57
2023-04-10T18:05:57.088Z,1.50
2023-04-10T18:08:25.278Z,1.50
2023-04-10T18:10:53.449Z,1.50
2023-04-10T18:13:22.964Z,1.53
2023-04-10T18:15:51.146Z,1.77
2023-04-10T18:18:19.304Z,1.60
2023-04-10T18:20:47.515Z,1.67
2023-04-10T18:23:15.665Z,1.70
2023-04-10T18:25:43.994Z,1.97
2023-04-10T18:28:14.967Z,1.93
2023-04-10T18:30:45.582Z,2.00
2023-04-10T18:33:20.240Z,2.10
2023-04-10T18:35:48.466Z,1.90
2023-04-10T18:38:16.642Z,2.00
2023-04-10T18:40:44.825Z,1.70
2023-04-10T18:43:13.039Z,1.80
2023-04-10T18:45:42.092Z,2.27
2023-04-10T18:48:11.694Z,2.13
2023-04-10T18:50:39.869Z,2.40
2023-04-10T18:53:08.085Z,2.47
2023-04-10T18:55:36.284Z,2.20
2023-04-10T18:58:04.492Z,2.60
2023-04-10T19:00:34.029Z,2.50
2023-04-10T19:03:02.395Z,2.43
2023-04-10T19:05:33.399Z,2.67
2023-04-10T19:08:04.723Z,2.80
2023-04-10T19:10:33.257Z,3.00
2023-04-10T19:13:01.457Z,3.43
2023-04-10T19:15:29.769Z,3.73
2023-04-10T19:17:58.153Z,4.23
2023-04-10T19:20:51.026Z,4.03
2023-04-10T19:23:16.056Z,3.93
2023-04-10T19:25:44.735Z,3.77
2023-04-10T19:28:12.922Z,3.27
2023-04-10T19:30:41.096Z,2.37
2023-04-10T19:33:09.287Z,2.50
2023-04-10T19:35:37.470Z,2.67
2023-04-10T19:38:05.787Z,2.40
2023-04-10T19:40:35.287Z,2.70
2023-04-10T19:43:03.551Z,2.60
2023-04-10T19:45:32.465Z,2.27
2023-04-10T19:48:01.029Z,2.73
2023-04-10T19:50:30.727Z,2.67
2023-04-10T19:52:59.544Z,2.43
2023-04-10T19:55:28.279Z,2.03
2023-04-10T19:57:57.867Z,2.43
2023-04-10T20:00:26.027Z,2.20
2023-04-10T20:02:54.463Z,2.00
2023-04-10T20:05:22.845Z,1.60
2023-04-10T20:07:51.041Z,1.80
2023-04-10T20:10:19.208Z,2.00
2023-04-10T20:12:47.364Z,1.57
2023-04-10T20:15:17.489Z,1.90
2023-04-10T20:17:45.716Z,1.60
2023-04-10T20:20:14.140Z,1.60
2023-04-10T20:22:43.070Z,1.73
2023-04-10T20:25:11.568Z,1.60
2023-04-10T20:27:39.736Z,1.70
2023-04-10T20:30:08.649Z,2.03
2023-04-10T20:32:38.739Z,2.80
2023-04-10T20:35:07.415Z,2.10
2023-04-10T20:37:35.566Z,2.00
2023-04-10T20:40:04.183Z,1.97
2023-04-10T20:42:32.350Z,1.70
2023-04-10T20:45:00.543Z,1.77
2023-04-10T20:47:30.083Z,1.63
2023-04-10T20:49:59.612Z,1.80
2023-04-10T20:52:27.786Z,1.87
2023-04-10T20:54:56.041Z,1.80
2023-04-10T20:57:24.743Z,1.40
2023-04-10T20:59:52.939Z,2.00
2023-04-10T21:02:21.258Z,1.90
2023-04-10T21:04:52.042Z,1.93
2023-04-10T21:07:21.695Z,1.50
2023-04-10T21:09:49.874Z,1.60
2023-04-10T21:12:18.092Z,1.40
2023-04-10T21:14:46.259Z,1.60
2023-04-10T21:17:14.443Z,1.60
2023-04-10T21:19:42.586Z,1.53
2023-04-10T21:22:11.177Z,1.50
2023-04-10T21:24:40.729Z,1.20
2023-04-10T21:27:09.047Z,1.20
2023-04-10T21:29:37.180Z,1.60
2023-04-10T21:32:05.415Z,1.27
2023-04-10T21:34:33.629Z,1.20
2023-04-10T21:37:01.781Z,1.47
2023-04-10T21:39:30.541Z,1.30
2023-04-10T21:42:00.150Z,1.40
2023-04-10T21:44:28.332Z,1.20
2023-04-10T21:46:56.473Z,1.80
2023-04-10T21:49:24.649Z,1.10
2023-04-10T21:51:52.815Z,1.10
2023-04-10T21:54:21.006Z,0.97
2023-04-10T21:56:49.163Z,0.90
2023-04-10T21:59:18.729Z,1.20
2023-04-10T22:01:47.007Z,1.00
2023-04-10T22:04:15.434Z,1.10
2023-04-10T22:06:43.805Z,1.53
2023-04-10T22:09:11.998Z,1.13
2023-04-10T22:11:40.198Z,1.20
2023-04-10T22:14:16.453Z,1.07
2023-04-10T22:16:47.692Z,0.87
2023-04-10T22:19:15.978Z,1.20
2023-04-10T22:21:44.257Z,0.97
2023-04-10T22:24:12.451Z,1.27
2023-04-10T22:26:42.026Z,1.10
2023-04-10T22:29:10.212Z,1.00
2023-04-10T22:31:38.405Z,0.97
2023-04-10T22:34:08.995Z,1.10
2023-04-10T22:36:37.201Z,1.20
2023-04-10T22:39:05.653Z,1.17
2023-04-10T22:41:33.955Z,1.20
2023-04-10T22:44:02.088Z,1.30
2023-04-10T22:46:30.378Z,2.17
2023-04-10T22:48:58.532Z,1.47
2023-04-10T22:51:28.045Z,1.20
2023-04-10T22:53:56.320Z,1.20
2023-04-10T22:56:26.468Z,1.20
2023-04-10T22:58:55.087Z,1.20
2023-04-10T23:01:23.439Z,1.37
2023-04-10T23:03:53.813Z,1.30
2023-04-10T23:06:22.254Z,1.40
2023-04-10T23:08:52.524Z,1.60
2023-04-10T23:11:21.686Z,1.30
2023-04-10T23:13:49.873Z,1.70
2023-04-10T23:16:18.101Z,1.57
2023-04-10T23:18:46.278Z,1.43
2023-04-10T23:21:14.478Z,1.63
2023-04-10T23:23:42.685Z,2.10
2023-04-10T23:26:12.352Z,1.70
2023-04-10T23:28:40.706Z,1.97
2023-04-10T23:31:09.976Z,1.80
2023-04-10T23:33:38.200Z,2.00
2023-04-10T23:36:06.825Z,2.10
2023-04-10T23:38:34.988Z,2.30
2023-04-10T23:41:03.789Z,2.10
2023-04-10T23:43:33.268Z,2.43
2023-04-10T23:46:01.564Z,2.03
2023-04-10T23:48:29.824Z,2.07
2023-04-10T23:51:04.361Z,2.00
2023-04-10T23:53:32.554Z,1.77
2023-04-10T23:56:00.764Z,1.87
2023-04-10T23:58:28.938Z,1.80
